Time;durP1;ratioP1;P1;durP2;ratioP2;P2;SDS_P1;SDS_P2;PMS_P1;PMS_P2;Temp;Humidity;BMP_temperature;BMP_pressure;BME280_temperature;BME280_humidity;BME280_pressure;Samples;Min_cycle;Max_cycle;Signal;HPM_P1;HPM_P2
2023/07/21 00:02:56;;;;;;;11.52;7.88;;;;;;;19.80;88.58;97416.41;10282360;28;20156;-49
2023/07/21 00:07:55;;;;;;;10.88;8.07;;;;;;;19.67;89.18;97418.72;10284767;28;20556;-51
2023/07/21 00:12:54;;;;;;;12.80;9.00;;;;;;;19.54;90.13;97422.78;10282637;28;20121;-51
2023/07/21 00:17:53;;;;;;;13.38;8.93;;;;;;;19.56;89.86;97419.19;10288795;28;20157;-50
2023/07/21 00:22:52;;;;;;;12.57;9.48;;;;;;;19.59;89.05;97402.41;10280591;28;20122;-52
2023/07/21 00:27:51;;;;;;;14.88;10.23;;;;;;;19.56;89.31;97413.91;10284155;28;20037;-52
2023/07/21 00:32:50;;;;;;;15.98;10.50;;;;;;;19.53;89.37;97394.72;10280884;28;20073;-49
2023/07/21 00:37:49;;;;;;;16.08;10.00;;;;;;;19.59;89.19;97397.13;10284368;28;20073;-51
2023/07/21 00:42:48;;;;;;;13.75;10.88;;;;;;;19.61;89.49;97390.03;10281560;28;20104;-50
2023/07/21 00:47:48;;;;;;;18.40;10.63;;;;;;;19.60;89.80;97385.69;10282141;28;20033;-51
2023/07/21 00:52:48;;;;;;;14.27;10.38;;;;;;;19.60;89.74;97383.03;10295759;28;20511;-51
2023/07/21 00:57:47;;;;;;;14.80;9.82;;;;;;;19.54;90.38;97378.03;10283301;28;20077;-50
2023/07/21 01:02:49;;;;;;;12.43;9.32;;;;;;;19.47;90.94;97376.59;10282183;28;20128;-51
2023/07/21 01:07:50;;;;;;;14.75;8.85;;;;;;;19.32;91.17;97383.34;10282027;28;20084;-50
2023/07/21 01:12:49;;;;;;;16.80;10.23;;;;;;;19.24;91.50;97365.25;10279979;28;20125;-50
2023/07/21 01:17:51;;;;;;;15.90;10.80;;;;;;;19.23;91.81;97368.81;10281760;28;20030;-51
2023/07/21 01:22:55;;;;;;;17.05;11.32;;;;;;;19.26;91.68;97387.09;10279672;28;20126;-52
2023/07/21 01:27:55;;;;;;;14.40;11.27;;;;;;;19.20;91.57;97368.91;10281934;28;20073;-52
2023/07/21 01:32:54;;;;;;;21.80;11.93;;;;;;;19.22;92.23;97380.25;10280534;28;20129;-50
2023/07/21 01:37:55;;;;;;;15.30;9.68;;;;;;;19.19;92.16;97398.78;10279606;28;20168;-51
2023/07/21 01:42:54;;;;;;;16.95;10.25;;;;;;;19.11;92.75;97390.34;10280154;28;20132;-50
2023/07/21 01:47:55;;;;;;;18.02;11.18;;;;;;;18.98;92.07;97361.94;10280233;28;20077;-52
2023/07/21 01:52:57;;;;;;;18.52;11.18;;;;;;;19.14;91.95;97390.25;10279751;28;20077;-52
2023/07/21 01:58:06;;;;;;;15.23;11.10;;;;;;;19.07;92.52;97409.81;10278660;28;20152;-51
2023/07/21 02:03:05;;;;;;;15.30;9.98;;;;;;;18.96;92.71;97415.50;10294349;28;20134;-49
2023/07/21 02:08:04;;;;;;;16.50;10.20;;;;;;;18.82;92.78;97414.28;10278562;28;20125;-47
2023/07/21 02:13:04;;;;;;;14.50;10.85;;;;;;;18.71;92.88;97418.22;10279020;28;20043;-51
2023/07/21 02:18:03;;;;;;;13.95;9.68;;;;;;;18.57;93.21;97417.00;10279977;28;20087;-51
2023/07/21 02:23:02;;;;;;;16.27;11.02;;;;;;;18.51;92.96;97422.47;10278575;28;20030;-51
2023/07/21 02:28:03;;;;;;;17.10;12.65;;;;;;;18.37;93.27;97393.25;10279455;28;20107;-51
2023/07/21 02:33:02;;;;;;;18.65;12.55;;;;;;;18.44;94.32;97421.00;10279679;28;20096;-51
2023/07/21 02:38:05;;;;;;;16.63;11.60;;;;;;;18.42;94.22;97429.84;10277432;28;20076;-48
2023/07/21 02:43:04;;;;;;;16.70;12.00;;;;;;;18.40;94.37;97425.50;10279749;28;20389;-50
2023/07/21 02:48:03;;;;;;;17.15;12.45;;;;;;;18.44;94.15;97428.88;10277463;28;20382;-51
2023/07/21 02:53:02;;;;;;;16.88;12.77;;;;;;;18.47;93.98;97436.63;10277020;28;20069;-51
2023/07/21 02:58:01;;;;;;;18.05;12.20;;;;;;;18.52;94.13;97439.94;10279541;28;20044;-50
2023/07/21 03:03:01;;;;;;;17.92;13.05;;;;;;;18.53;94.05;97440.81;10276982;28;20037;-49
2023/07/21 03:08:00;;;;;;;18.27;14.23;;;;;;;18.52;94.08;97441.72;10279525;28;20065;-49
2023/07/21 03:12:59;;;;;;;17.98;13.35;;;;;;;18.39;93.99;97417.69;10278459;28;20487;-50
2023/07/21 03:17:58;;;;;;;20.50;12.95;;;;;;;18.55;93.93;97441.59;10283158;28;20513;-51
2023/07/21 03:22:57;;;;;;;19.52;12.73;;;;;;;18.52;94.21;97455.69;10284990;28;20121;-50
2023/07/21 03:27:56;;;;;;;20.33;12.63;;;;;;;18.39;94.86;97459.72;10283996;28;20070;-52
2023/07/21 03:32:55;;;;;;;19.55;12.23;;;;;;;18.29;94.62;97439.94;10285743;28;20126;-50
2023/07/21 03:37:54;;;;;;;20.13;13.90;;;;;;;18.41;94.40;97436.88;10282133;28;20125;-50
2023/07/21 03:42:53;;;;;;;27.83;18.08;;;;;;;18.68;93.89;97470.91;10285341;28;20050;-50
2023/07/21 03:47:52;;;;;;;18.83;13.40;;;;;;;18.70;93.75;97477.00;10284632;28;20073;-48
2023/07/21 03:52:51;;;;;;;16.17;12.40;;;;;;;18.76;93.79;97476.72;10284845;28;20117;-51
2023/07/21 03:57:49;;;;;;;18.08;12.48;;;;;;;18.89;93.43;97458.72;10283491;28;20050;-50
2023/07/21 04:02:48;;;;;;;20.70;12.55;;;;;;;19.07;93.11;97459.78;10283143;28;20037;-51
2023/07/21 04:07:47;;;;;;;23.05;12.32;;;;;;;19.22;92.80;97456.53;10282855;28;20117;-48
2023/07/21 04:12:46;;;;;;;25.73;13.30;;;;;;;19.35;91.96;97463.00;10282514;28;20029;-49
2023/07/21 04:17:45;;;;;;;19.80;11.82;;;;;;;19.43;91.10;97465.31;10283601;28;20423;-51
2023/07/21 04:22:45;;;;;;;21.88;11.85;;;;;;;19.41;91.47;97472.41;10283552;28;20096;-52
2023/07/21 04:27:50;;;;;;;21.48;13.15;;;;;;;19.27;91.46;97456.34;10280094;28;20081;-53
2023/07/21 04:32:49;;;;;;;16.92;11.43;;;;;;;19.23;92.58;97476.66;10282376;28;20153;-51
2023/07/21 04:37:48;;;;;;;18.90;12.38;;;;;;;19.33;92.46;97475.38;10281502;28;20077;-51
2023/07/21 04:42:48;;;;;;;14.45;11.57;;;;;;;19.33;92.58;97485.88;10282149;28;20112;-50
2023/07/21 04:47:49;;;;;;;18.17;13.63;;;;;;;19.48;92.19;97480.91;10282682;28;20117;-53
2023/07/21 04:52:48;;;;;;;18.95;12.10;;;;;;;19.64;91.70;97482.88;10279035;28;20116;-50
2023/07/21 04:57:47;;;;;;;17.88;11.95;;;;;;;19.72;91.05;97495.75;10282063;28;20041;-50
2023/07/21 05:02:47;;;;;;;15.95;11.45;;;;;;;19.71;91.52;97493.16;10283312;28;20068;-49
2023/07/21 05:07:46;;;;;;;20.25;13.32;;;;;;;19.82;91.13;97502.31;10280099;28;20132;-50
2023/07/21 05:12:45;;;;;;;25.20;12.73;;;;;;;19.99;90.76;97496.31;10281616;28;20112;-51
2023/07/21 05:17:44;;;;;;;26.20;12.93;;;;;;;20.21;90.49;97491.00;10279567;28;20638;-51
2023/07/21 05:22:43;;;;;;;21.65;14.10;;;;;;;20.34;89.36;97486.03;10280105;28;20041;-50
2023/07/21 05:27:42;;;;;;;25.88;15.38;;;;;;;20.63;88.92;97495.31;10281495;28;20408;-51
2023/07/21 05:32:41;;;;;;;22.35;15.45;;;;;;;20.84;87.44;97490.78;10281749;28;20037;-52
2023/07/21 05:37:40;;;;;;;25.55;13.43;;;;;;;20.88;86.37;97488.88;10280145;28;20471;-51
2023/07/21 05:42:39;;;;;;;20.15;13.13;;;;;;;21.11;86.63;97493.91;10283412;28;20503;-51
2023/07/21 05:47:38;;;;;;;22.92;14.65;;;;;;;21.22;86.65;97490.81;10283739;28;20406;-51
2023/07/21 05:52:37;;;;;;;15.60;11.98;;;;;;;21.41;86.37;97484.63;10276000;28;20040;-50
2023/07/21 05:57:36;;;;;;;18.08;13.30;;;;;;;21.68;84.52;97490.31;10273933;28;20121;-48
2023/07/21 06:02:35;;;;;;;19.42;13.02;;;;;;;21.88;83.99;97478.75;10276781;28;20044;-51
2023/07/21 06:07:34;;;;;;;17.08;11.85;;;;;;;21.94;82.89;97446.72;10275109;28;20580;-51
2023/07/21 06:12:33;;;;;;;14.68;11.45;;;;;;;22.43;79.90;97475.03;10280011;28;20165;-51
2023/07/21 06:17:32;;;;;;;20.00;11.88;;;;;;;22.24;79.89;97417.03;10280322;28;21088;-50
2023/07/21 06:22:31;;;;;;;21.02;11.25;;;;;;;22.80;78.84;97474.78;10285632;28;20726;-49
2023/07/21 06:27:30;;;;;;;22.15;11.35;;;;;;;22.77;77.49;97427.34;10286961;28;20129;-50
2023/07/21 06:32:29;;;;;;;14.18;11.05;;;;;;;23.09;76.77;97471.47;10284381;28;20511;-51
2023/07/21 06:37:28;;;;;;;15.48;9.93;;;;;;;23.29;74.65;97465.91;10287195;28;20551;-51
2023/07/21 06:42:27;;;;;;;14.73;9.45;;;;;;;23.35;72.39;97454.09;10289038;28;20119;-49
2023/07/21 06:47:26;;;;;;;13.93;8.27;;;;;;;23.55;71.83;97451.19;10288006;28;20087;-50
2023/07/21 06:52:25;;;;;;;11.90;9.10;;;;;;;23.79;69.74;97440.06;10288730;28;20128;-50
2023/07/21 06:57:24;;;;;;;14.25;9.13;;;;;;;23.97;65.29;97423.06;10293159;28;20062;-51
2023/07/21 07:02:23;;;;;;;14.20;7.85;;;;;;;24.23;63.77;97440.06;10290201;28;20125;-52
2023/07/21 07:07:22;;;;;;;16.63;8.27;;;;;;;24.62;64.65;97443.00;10289530;28;20022;-51
2023/07/21 07:12:21;;;;;;;11.13;7.90;;;;;;;24.72;61.69;97419.41;10289179;28;20072;-51
2023/07/21 07:17:20;;;;;;;10.95;7.90;;;;;;;25.06;61.35;97445.50;10289264;28;20058;-52
2023/07/21 07:22:19;;;;;;;12.13;8.30;;;;;;;25.27;61.19;97435.31;10277338;28;20037;-51
2023/07/21 07:27:18;;;;;;;10.10;7.00;;;;;;;25.27;59.36;97443.25;10286753;28;20046;-50
2023/07/21 07:32:17;;;;;;;13.30;8.57;;;;;;;25.52;60.50;97445.13;10288851;28;20046;-52
2023/07/21 07:37:16;;;;;;;14.45;8.27;;;;;;;25.60;58.41;97439.34;10290550;28;20100;-52
2023/07/21 07:42:15;;;;;;;10.90;7.85;;;;;;;25.62;57.95;97404.69;10285258;28;20485;-52
2023/07/21 07:47:14;;;;;;;281.60;29.20;;;;;;;26.19;58.10;97449.53;10287692;28;20069;-51
2023/07/21 07:52:13;;;;;;;16.08;7.68;;;;;;;26.50;56.68;97437.59;10286394;28;20046;-51
2023/07/21 07:57:12;;;;;;;10.25;7.95;;;;;;;26.71;54.65;97429.91;10285194;28;20116;-52
2023/07/21 08:02:11;;;;;;;11.23;8.10;;;;;;;27.03;55.90;97428.59;10285628;28;20117;-52
2023/07/21 08:07:10;;;;;;;10.82;7.72;;;;;;;27.15;53.18;97425.84;10285323;28;20028;-51
2023/07/21 08:12:09;;;;;;;12.45;6.70;;;;;;;27.28;52.88;97444.44;10291544;28;20034;-50
2023/07/21 08:17:08;;;;;;;13.25;8.05;;;;;;;27.35;52.76;97436.84;10285677;28;20412;-52
2023/07/21 08:22:07;;;;;;;11.45;7.68;;;;;;;27.39;52.85;97396.53;10284864;28;20125;-51
2023/07/21 08:27:07;;;;;;;13.07;7.10;;;;;;;27.67;51.71;97439.78;10301458;28;20033;-52
2023/07/21 08:32:07;;;;;;;12.82;7.55;;;;;;;27.80;49.68;97437.91;10291743;28;20061;-53
2023/07/21 08:37:06;;;;;;;11.63;6.78;;;;;;;27.76;51.45;97448.91;10291858;28;20060;-52
2023/07/21 08:42:11;;;;;;;9.68;6.70;;;;;;;27.99;49.38;97433.81;10292144;28;20077;-49
2023/07/21 08:47:11;;;;;;;10.13;6.60;;;;;;;28.07;48.88;97426.09;10289389;28;20065;-51
2023/07/21 08:52:10;;;;;;;9.70;6.80;;;;;;;28.29;50.00;97408.41;10289875;28;20122;-52
2023/07/21 08:57:11;;;;;;;11.77;6.88;;;;;;;28.63;49.85;97418.09;10289028;28;20149;-51
2023/07/21 09:02:10;;;;;;;10.00;5.93;;;;;;;28.70;47.22;97412.31;10291180;28;20077;-52
2023/07/21 09:07:11;;;;;;;56.35;11.93;;;;;;;28.92;47.93;97406.91;10286535;28;20068;-53
2023/07/21 09:12:11;;;;;;;9.02;5.85;;;;;;;29.18;45.71;97407.47;10283480;28;21095;-52
2023/07/21 09:17:15;;;;;;;9.85;6.18;;;;;;;29.19;43.38;97405.66;10281970;28;20460;-53
2023/07/21 09:22:14;;;;;;;10.10;6.15;;;;;;;29.14;42.87;97410.53;10282404;28;20156;-52
2023/07/21 09:27:15;;;;;;;9.40;6.35;;;;;;;29.28;42.54;97397.75;10282834;28;20168;-53
2023/07/21 09:32:15;;;;;;;8.40;5.30;;;;;;;29.62;41.84;97397.59;10282868;28;20840;-52
2023/07/21 09:37:15;;;;;;;9.02;5.82;;;;;;;29.77;38.85;97398.13;10284665;28;20064;-54
2023/07/21 09:42:15;;;;;;;8.88;6.05;;;;;;;29.73;39.05;97353.91;10281609;28;20126;-51
2023/07/21 09:47:16;;;;;;;9.90;5.95;;;;;;;30.19;40.04;97391.91;10282724;28;20188;-54
2023/07/21 09:52:17;;;;;;;9.77;5.85;;;;;;;29.92;39.04;97379.94;10282531;28;20073;-51
2023/07/21 09:57:22;;;;;;;9.10;5.70;;;;;;;30.03;39.62;97376.34;10285527;28;20073;-54
2023/07/21 10:02:22;;;;;;;9.32;5.53;;;;;;;29.89;39.80;97362.31;10283570;28;20064;-53
2023/07/21 10:07:21;;;;;;;8.55;5.80;;;;;;;30.30;39.92;97376.63;10280645;28;20061;-53
2023/07/21 10:12:20;;;;;;;11.48;5.40;;;;;;;30.40;39.63;97367.75;10282926;28;20628;-52
2023/07/21 10:17:24;;;;;;;10.85;6.25;;;;;;;30.54;39.63;97373.63;10281752;28;20531;-52
2023/07/21 10:22:25;;;;;;;9.50;5.95;;;;;;;30.66;39.29;97336.03;10283286;28;20125;-49
2023/07/21 10:27:24;;;;;;;8.00;5.13;;;;;;;31.06;38.12;97360.09;10288208;28;20649;-52
2023/07/21 10:32:24;;;;;;;9.82;5.88;;;;;;;31.06;37.93;97352.06;10288901;28;20128;-52
2023/07/21 10:37:23;;;;;;;8.32;5.65;;;;;;;31.32;38.02;97356.88;10290659;28;20128;-53
2023/07/21 10:42:22;;;;;;;11.23;5.72;;;;;;;31.38;37.13;97359.81;10291181;28;20121;-54
2023/07/21 10:47:21;;;;;;;13.23;5.97;;;;;;;31.67;36.98;97347.41;10289725;28;20060;-53
2023/07/21 10:52:22;;;;;;;9.68;5.35;;;;;;;31.64;36.42;97336.94;10289413;28;20559;-53
2023/07/21 10:57:21;;;;;;;9.32;5.20;;;;;;;31.67;36.39;97342.03;10288299;28;20133;-52
2023/07/21 11:02:24;;;;;;;7.63;5.47;;;;;;;31.89;36.68;97336.31;10287973;28;20101;-51
2023/07/21 11:07:27;;;;;;;8.60;5.25;;;;;;;31.80;36.33;97338.06;10288400;28;20113;-51
2023/07/21 11:12:26;;;;;;;8.27;5.00;;;;;;;31.92;36.72;97330.69;10289845;28;20675;-52
2023/07/21 11:17:25;;;;;;;7.07;4.60;;;;;;;31.87;36.41;97330.25;10287057;28;20117;-52
2023/07/21 11:22:24;;;;;;;8.93;5.40;;;;;;;31.98;36.27;97329.22;10282298;28;20071;-53
2023/07/21 11:27:23;;;;;;;8.93;5.70;;;;;;;32.11;36.20;97327.09;10291917;28;20030;-52
2023/07/21 11:32:23;;;;;;;12.77;6.28;;;;;;;32.12;36.32;97325.25;10288993;28;20044;-52
2023/07/21 11:37:22;;;;;;;7.45;5.68;;;;;;;32.54;35.52;97322.09;10290092;28;20065;-52
2023/07/21 11:42:21;;;;;;;9.35;4.97;;;;;;;32.46;35.36;97314.78;10290941;28;20022;-52
2023/07/21 11:47:20;;;;;;;25.17;7.97;;;;;;;32.86;35.00;97310.88;10288292;28;20057;-51
2023/07/21 11:52:26;;;;;;;9.48;5.25;;;;;;;33.18;34.29;97291.53;10272234;28;20714;-51
2023/07/21 11:57:27;;;;;;;10.63;5.47;;;;;;;33.38;33.33;97286.84;10279734;28;20164;-51
2023/07/21 12:02:26;;;;;;;8.00;5.45;;;;;;;33.48;33.30;97281.34;10288262;28;20070;-51
2023/07/21 12:07:26;;;;;;;9.75;6.75;;;;;;;33.80;33.78;97280.75;10289845;28;20064;-51
2023/07/21 12:12:25;;;;;;;8.00;5.70;;;;;;;34.14;33.76;97276.41;10289414;28;20061;-51
2023/07/21 12:17:24;;;;;;;18.25;6.40;;;;;;;34.41;33.00;97268.09;10289755;28;20121;-51
2023/07/21 12:22:25;;;;;;;14.15;5.75;;;;;;;33.89;32.30;97265.50;10287682;28;20022;-54
2023/07/21 12:27:23;;;;;;;10.48;6.10;;;;;;;33.90;32.56;97261.78;10288278;28;20084;-54
2023/07/21 12:32:22;;;;;;;8.93;5.38;;;;;;;34.06;31.63;97275.34;10284623;28;20038;-52
2023/07/21 12:37:21;;;;;;;10.90;5.15;;;;;;;34.32;30.90;97252.91;10284342;28;20044;-54
2023/07/21 12:42:20;;;;;;;11.35;5.75;;;;;;;34.65;32.57;97248.47;10286283;28;20026;-52
2023/07/21 12:47:19;;;;;;;10.32;5.28;;;;;;;34.66;30.38;97249.31;10283968;28;20113;-54
2023/07/21 12:52:18;;;;;;;8.48;5.45;;;;;;;34.20;31.63;97192.28;10284532;28;20030;-52
2023/07/21 12:57:17;;;;;;;11.50;7.07;;;;;;;34.76;30.74;97266.19;10283723;28;20026;-52
2023/07/21 13:02:16;;;;;;;8.75;5.68;;;;;;;34.72;30.10;97259.44;10280684;28;20129;-53
2023/07/21 13:07:15;;;;;;;10.18;6.03;;;;;;;34.93;31.12;97251.69;10281666;28;20124;-51
2023/07/21 13:12:14;;;;;;;14.98;6.63;;;;;;;34.95;29.95;97240.75;10278515;28;20114;-52
2023/07/21 13:17:14;;;;;;;9.48;5.72;;;;;;;34.97;29.72;97248.69;10281170;28;20073;-53
2023/07/21 13:22:13;;;;;;;9.88;5.97;;;;;;;34.78;29.43;97237.22;10280988;28;20120;-53
2023/07/21 13:27:12;;;;;;;13.88;9.30;;;;;;;34.74;30.75;97218.84;10281191;28;20109;-53
2023/07/21 13:32:11;;;;;;;11.23;7.30;;;;;;;35.03;30.10;97232.66;10280045;28;20048;-53
2023/07/21 13:37:10;;;;;;;10.98;6.72;;;;;;;35.20;32.17;97230.84;10281596;28;20036;-54
2023/07/21 13:42:09;;;;;;;12.68;7.72;;;;;;;35.37;30.73;97209.25;10279305;28;20129;-52
2023/07/21 13:47:08;;;;;;;12.35;7.55;;;;;;;35.83;30.20;97231.06;10279409;28;21520;-52
2023/07/21 13:52:07;;;;;;;10.30;6.18;;;;;;;35.42;29.16;97236.56;10275908;28;20120;-52
2023/07/21 13:57:07;;;;;;;10.43;6.30;;;;;;;34.97;32.34;97237.91;10277425;28;20137;-52
2023/07/21 14:02:06;;;;;;;9.32;5.60;;;;;;;35.29;32.66;97224.44;10279647;28;20165;-52
2023/07/21 14:07:05;;;;;;;14.52;5.63;;;;;;;35.08;33.32;97237.53;10279897;28;20120;-52
2023/07/21 14:12:04;;;;;;;9.20;5.25;;;;;;;34.64;33.52;97232.47;10277891;28;20331;-51
2023/07/21 14:17:04;;;;;;;8.20;5.50;;;;;;;34.23;36.08;97232.34;10280072;28;20157;-53
2023/07/21 14:22:03;;;;;;;10.00;5.85;;;;;;;34.15;34.70;97229.63;10280807;28;20132;-54
2023/07/21 14:27:02;;;;;;;9.90;5.80;;;;;;;34.12;35.40;97229.94;10284724;28;20062;-52
2023/07/21 14:32:01;;;;;;;8.07;5.60;;;;;;;33.91;35.39;97158.50;10282814;28;20069;-52
2023/07/21 14:37:00;;;;;;;7.95;5.25;;;;;;;34.50;35.05;97229.38;10282536;28;20064;-52
2023/07/21 14:41:59;;;;;;;10.85;5.75;;;;;;;34.37;35.82;97207.47;10282622;28;20025;-52
2023/07/21 14:46:58;;;;;;;8.88;5.22;;;;;;;34.38;36.00;97224.47;10282234;28;20380;-52
2023/07/21 14:52:00;;;;;;;10.25;5.63;;;;;;;33.91;35.50;97196.19;10279184;28;20076;-51
2023/07/21 14:56:59;;;;;;;7.43;5.40;;;;;;;34.22;34.95;97215.34;10282807;28;20081;-52
2023/07/21 15:01:58;;;;;;;10.32;5.70;;;;;;;34.31;36.09;97216.22;10275216;28;20591;-52
2023/07/21 15:06:57;;;;;;;11.23;5.90;;;;;;;34.20;36.02;97227.28;10282455;28;20554;-52
2023/07/21 15:11:56;;;;;;;8.15;5.35;;;;;;;34.09;36.51;97223.84;10283397;28;20030;-52
2023/07/21 15:16:55;;;;;;;11.23;5.85;;;;;;;34.22;36.27;97222.59;10289474;28;20124;-52
2023/07/21 15:21:54;;;;;;;13.07;5.63;;;;;;;34.17;36.02;97220.38;10287291;28;20061;-51
2023/07/21 15:26:53;;;;;;;9.88;5.30;;;;;;;34.03;36.45;97226.38;10284696;28;20463;-52
2023/07/21 15:31:53;;;;;;;8.50;5.57;;;;;;;33.80;37.03;97213.47;10285442;28;20486;-52
2023/07/21 15:36:51;;;;;;;10.07;5.65;;;;;;;33.65;36.04;97226.69;10284898;28;20069;-52
2023/07/21 15:41:50;;;;;;;8.82;5.20;;;;;;;33.66;37.68;97225.69;10284865;28;20026;-52
2023/07/21 15:46:49;;;;;;;11.13;5.20;;;;;;;33.52;37.35;97222.72;10283335;28;20518;-52
2023/07/21 15:51:48;;;;;;;10.20;5.10;;;;;;;33.53;37.28;97230.59;10281928;28;20113;-52
2023/07/21 15:56:48;;;;;;;12.02;5.72;;;;;;;33.63;36.86;97233.22;10283021;28;20048;-51
2023/07/21 16:01:46;;;;;;;8.85;5.43;;;;;;;33.56;37.49;97240.19;10283931;28;20117;-52
2023/07/21 16:06:46;;;;;;;10.38;5.65;;;;;;;33.45;37.80;97239.47;10280577;28;20084;-51
2023/07/21 16:11:45;;;;;;;10.15;5.10;;;;;;;33.54;38.04;97248.44;10283778;28;20136;-51
2023/07/21 16:16:44;;;;;;;10.05;5.22;;;;;;;33.37;39.70;97246.63;10282502;28;20036;-51
2023/07/21 16:21:43;;;;;;;13.30;5.75;;;;;;;33.37;41.75;97266.34;10282972;28;20614;-51
2023/07/21 16:26:42;;;;;;;11.73;6.15;;;;;;;33.40;42.07;97243.66;10280101;28;20512;-49
2023/07/21 16:31:41;;;;;;;10.55;5.30;;;;;;;33.63;40.95;97257.44;10281762;28;20056;-52
2023/07/21 16:36:42;;;;;;;10.23;5.85;;;;;;;33.62;40.87;97256.59;10282537;28;20121;-52
2023/07/21 16:41:41;;;;;;;11.18;5.90;;;;;;;33.52;40.39;97261.22;10287775;28;20626;-52
2023/07/21 16:46:41;;;;;;;8.85;5.60;;;;;;;33.59;40.32;97258.75;10282189;28;20029;-52
2023/07/21 16:51:40;;;;;;;10.02;5.70;;;;;;;33.05;41.13;97183.53;10280739;28;20133;-53
2023/07/21 16:56:39;;;;;;;11.95;6.43;;;;;;;33.43;41.73;97268.38;10281474;28;20022;-53
2023/07/21 17:01:39;;;;;;;10.10;6.55;;;;;;;33.34;42.31;97265.78;10281408;28;20419;-52
2023/07/21 17:06:38;;;;;;;9.60;6.03;;;;;;;33.19;42.20;97273.59;10280629;28;20145;-51
2023/07/21 17:11:37;;;;;;;13.20;6.95;;;;;;;32.93;42.73;97260.06;10280890;28;20420;-52
2023/07/21 17:16:36;;;;;;;17.02;7.28;;;;;;;32.84;43.37;97259.97;10279780;28;20099;-51
2023/07/21 17:21:35;;;;;;;11.90;7.07;;;;;;;32.59;44.12;97258.03;10281227;28;20112;-52
2023/07/21 17:26:34;;;;;;;12.25;6.80;;;;;;;32.20;44.96;97253.72;10280737;28;20148;-51
2023/07/21 17:31:34;;;;;;;12.30;7.10;;;;;;;31.85;45.47;97253.56;10279018;28;20550;-53
2023/07/21 17:36:33;;;;;;;10.63;6.97;;;;;;;31.48;47.27;97254.38;10282013;28;20065;-52
2023/07/21 17:41:32;;;;;;;10.25;6.18;;;;;;;31.11;47.50;97255.16;10279125;28;20124;-52
2023/07/21 17:46:31;;;;;;;13.85;7.20;;;;;;;30.74;48.22;97255.81;10281970;28;20042;-52
2023/07/21 17:51:30;;;;;;;12.48;7.15;;;;;;;30.33;49.92;97250.53;10279341;28;20432;-52
2023/07/21 17:56:29;;;;;;;11.98;6.97;;;;;;;30.00;50.85;97258.88;10279010;28;20037;-53
2023/07/21 18:01:28;;;;;;;11.63;6.70;;;;;;;29.71;51.79;97270.28;10281649;28;20435;-49
2023/07/21 18:06:27;;;;;;;11.10;7.53;;;;;;;29.39;53.35;97271.25;10278506;28;20026;-51
2023/07/21 18:11:26;;;;;;;14.88;7.93;;;;;;;28.95;56.27;97273.13;10280179;28;20028;-51
2023/07/21 18:16:24;;;;;;;12.93;9.10;;;;;;;28.67;57.14;97259.41;10277891;28;20023;-53
2023/07/21 18:21:24;;;;;;;17.13;9.98;;;;;;;28.40;57.72;97262.47;10278470;28;20137;-53
2023/07/21 18:26:24;;;;;;;16.17;10.13;;;;;;;28.25;58.15;97275.25;10279219;28;20061;-50
2023/07/21 18:31:23;;;;;;;16.05;9.85;;;;;;;27.67;59.34;97207.88;10278350;28;20120;-48
2023/07/21 18:36:22;;;;;;;17.38;10.00;;;;;;;27.66;59.61;97246.16;10278115;28;20033;-51
2023/07/21 18:41:21;;;;;;;16.10;8.88;;;;;;;27.24;59.83;97211.22;10278873;28;20030;-50
2023/07/21 18:46:20;;;;;;;17.20;9.20;;;;;;;27.47;60.88;97283.19;10280600;28;20121;-50
2023/07/21 18:51:20;;;;;;;19.17;8.68;;;;;;;27.34;62.83;97299.25;10286225;28;20038;-50
2023/07/21 18:56:19;;;;;;;13.95;9.95;;;;;;;27.18;63.37;97310.22;10285391;28;20077;-54
2023/07/21 19:01:20;;;;;;;19.15;9.43;;;;;;;26.94;64.61;97312.94;10286038;28;20112;-53
2023/07/21 19:06:19;;;;;;;15.68;10.90;;;;;;;26.71;66.25;97322.59;10285705;28;20129;-53
2023/07/21 19:11:21;;;;;;;20.60;11.95;;;;;;;26.38;69.30;97320.56;10283532;28;20021;-52
2023/07/21 19:16:22;;;;;;;17.90;10.23;;;;;;;26.05;70.68;97329.97;10286864;28;20073;-52
2023/07/21 19:21:21;;;;;;;14.30;10.57;;;;;;;25.97;70.92;97311.03;10285074;28;20073;-51
2023/07/21 19:26:21;;;;;;;20.88;12.00;;;;;;;25.78;72.34;97296.38;10289872;28;20119;-52
2023/07/21 19:31:20;;;;;;;18.55;11.77;;;;;;;25.76;72.44;97308.06;10289099;28;20084;-52
2023/07/21 19:36:18;;;;;;;15.60;11.20;;;;;;;25.64;73.55;97307.13;10286945;28;20193;-52
2023/07/21 19:41:18;;;;;;;18.30;11.80;;;;;;;25.38;74.70;97307.06;10289156;28;20033;-51
2023/07/21 19:46:17;;;;;;;17.85;10.98;;;;;;;25.02;72.96;97307.78;10286094;28;20512;-52
2023/07/21 19:51:17;;;;;;;14.05;8.75;;;;;;;24.66;69.53;97264.09;10287314;28;20073;-52
2023/07/21 19:56:17;;;;;;;14.07;8.75;;;;;;;24.83;68.51;97314.25;10281669;28;20069;-49
2023/07/21 20:01:16;;;;;;;13.65;8.48;;;;;;;24.73;68.44;97307.88;10286080;28;20080;-51
2023/07/21 20:06:15;;;;;;;16.05;9.40;;;;;;;24.55;71.75;97293.16;10286301;28;20112;-53
2023/07/21 20:11:14;;;;;;;14.02;9.65;;;;;;;24.63;72.18;97317.34;10285412;28;20069;-52
2023/07/21 20:16:13;;;;;;;19.10;11.25;;;;;;;24.59;73.24;97315.84;10287010;28;20022;-52
2023/07/21 20:21:12;;;;;;;12.80;9.18;;;;;;;24.26;75.53;97330.31;10286177;28;20112;-52
2023/07/21 20:26:11;;;;;;;14.45;9.20;;;;;;;24.12;76.56;97309.09;10283956;28;20034;-51
2023/07/21 20:31:10;;;;;;;12.30;8.48;;;;;;;24.14;76.23;97310.69;10282243;28;20117;-53
2023/07/21 20:36:09;;;;;;;15.80;9.70;;;;;;;24.19;75.86;97302.50;10281241;28;20349;-52
2023/07/21 20:41:08;;;;;;;15.23;8.80;;;;;;;24.10;75.50;97305.69;10282319;28;20036;-51
2023/07/21 20:46:07;;;;;;;13.38;8.43;;;;;;;24.06;74.07;97292.63;10281063;28;20029;-51
2023/07/21 20:51:06;;;;;;;17.52;8.70;;;;;;;24.11;73.57;97299.44;10283240;28;20116;-51
2023/07/21 20:56:06;;;;;;;15.25;8.85;;;;;;;24.05;72.91;97280.34;10281842;28;20061;-51
2023/07/21 21:01:05;;;;;;;10.52;7.75;;;;;;;23.70;71.40;97239.28;10280845;28;20113;-52
2023/07/21 21:06:04;;;;;;;11.38;7.68;;;;;;;24.12;70.67;97285.25;10282007;28;20038;-51
2023/07/21 21:11:04;;;;;;;13.82;7.38;;;;;;;23.74;69.85;97203.72;10280771;28;20522;-52
2023/07/21 21:16:03;;;;;;;12.10;7.82;;;;;;;24.19;70.13;97265.38;10281829;28;20120;-53
2023/07/21 21:21:02;;;;;;;13.00;7.88;;;;;;;24.18;69.34;97263.69;10281405;28;20394;-52
2023/07/21 21:26:01;;;;;;;13.20;8.25;;;;;;;24.11;69.31;97275.59;10283586;28;20044;-53
2023/07/21 21:31:01;;;;;;;14.40;7.80;;;;;;;23.92;66.04;97257.34;10283115;28;20045;-50
2023/07/21 21:36:00;;;;;;;12.13;7.28;;;;;;;23.97;64.23;97240.22;10284720;28;20108;-50
2023/07/21 21:40:59;;;;;;;24.98;6.88;;;;;;;24.24;55.49;97231.47;10283423;28;20424;-54
2023/07/21 21:45:58;;;;;;;17.30;6.05;;;;;;;24.97;51.01;97219.63;10283490;28;20138;-49
2023/07/21 21:50:57;;;;;;;14.10;5.97;;;;;;;25.82;48.62;97219.94;10282428;28;20037;-52
2023/07/21 21:55:56;;;;;;;18.60;6.32;;;;;;;26.32;46.67;97203.03;10284508;28;20049;-52
2023/07/21 22:00:54;;;;;;;10.00;5.82;;;;;;;26.70;45.15;97209.09;10282578;28;20196;-52
2023/07/21 22:05:53;;;;;;;11.43;5.50;;;;;;;27.02;44.10;97213.81;10281779;28;20176;-53
2023/07/21 22:10:52;;;;;;;12.57;5.22;;;;;;;27.29;43.51;97217.03;10281262;28;20126;-53
2023/07/21 22:15:51;;;;;;;16.90;6.00;;;;;;;27.53;42.49;97208.13;10283312;28;20069;-52
2023/07/21 22:20:50;;;;;;;15.85;5.90;;;;;;;27.56;42.27;97192.72;10283271;28;20141;-50
2023/07/21 22:25:49;;;;;;;13.75;6.53;;;;;;;27.76;41.86;97206.28;10283644;28;20034;-50
2023/07/21 22:30:48;;;;;;;8.82;5.03;;;;;;;27.74;42.17;97221.56;10286888;28;20133;-50
2023/07/21 22:35:47;;;;;;;8.52;5.20;;;;;;;27.76;41.99;97224.97;10286775;28;20042;-51
2023/07/21 22:40:46;;;;;;;13.35;5.80;;;;;;;27.75;41.78;97234.78;10287323;28;20069;-52
2023/07/21 22:45:45;;;;;;;10.40;5.63;;;;;;;27.68;41.24;97244.25;10287413;28;20067;-51
2023/07/21 22:50:44;;;;;;;9.48;5.40;;;;;;;27.62;41.51;97234.03;10285870;28;20113;-52
2023/07/21 22:55:45;;;;;;;11.77;5.78;;;;;;;27.73;41.59;97252.72;10287747;28;20110;-50